Mobile Downtown Airport
KBFM : now visible

Aeroporto :











RITROVATECI SU...

 
LOGIN :

Iscrizione | Disclaimer

   EN    FR    IT 

 









Sommario :    VFR   VFR Marginale   IFR   IFR Intensivo   IFR Molto Intensivo
Visibilità : 
Base nubi : 
>= 8 km
>= 3000ft
5 / 8 km
1000 / 3000 ft
1500m / 5 km
500 / 1000 ft
800 / 1500m
200 / 500 ft
< 800m
< 200 ft
Simboli :   Temporali  Nebbia  Neve Forte  Precipitazioni Forti  Vento > 20 kt







- Altitudine del aeroporto : 26 ft


KBFM - Mobile Downtown

ULTIMO METAR :
  • 180753Z AUTO 27003KT 10SM CLR 26/24 A2997 RMK AO2 SLP148 T02610239

METARs OBSOLETI :
  • 180653Z AUTO 28003KT 10SM CLR 26/24 A2997 RMK AO2 SLP148 T02610239
  • 180553Z AUTO 00000KT 10SM CLR 27/24 A2997 RMK AO2 SLP149 T02670239 10306 20267 403560233 56010

TAF KBFM
Valido dal 18 a 06 ore il 19 a 06 ore UTC


180520Z 1806/1906 VRB03KT P6SM SKC
FM181800 16007KT P6SM FEW050 FEW250
Nessun NOTAM noto per questo aeroporto.



MetMap, La meteo Aeronautica in un colpo d'occhio ! - Copyright ORBIFLY Dicembre 2007 - Disclaimer

ORBIFLY MET'MAP TEAM :

Programmazione e sviluppo : Alexandra Zaïnal
Concezione e sviluppo : Baudouin d'Aumeries
Co-Programmazione e sviluppo : Marc-Olivier Méhu
Supporto tecnico e logistico : Manuel Goepfert
Aiuto per la traduzione : Arnaldo La Scala

Contatto : metmap@orbifly.com




FONTI E CREDITI :

   NOAA       Earth
Advisory